sensor_id;sensor_type;location;lat;lon;timestamp;pressure;altitude;pressure_sealevel;temperature;humidity
61018;BME280;48171;51.550;5.434;2023-01-05T00:01:19;101677.63;;;10.12;99.22
61018;BME280;48171;51.550;5.434;2023-01-05T00:03:47;101684.75;;;10.20;98.92
61018;BME280;48171;51.550;5.434;2023-01-05T00:06:18;101660.88;;;10.08;98.84
61018;BME280;48171;51.550;5.434;2023-01-05T00:09:10;101669.69;;;10.12;98.84
61018;BME280;48171;51.550;5.434;2023-01-05T00:14:52;101698.84;;;10.26;98.78
61018;BME280;48171;51.550;5.434;2023-01-05T00:17:52;101697.97;;;10.25;98.24
61018;BME280;48171;51.550;5.434;2023-01-05T00:21:06;101690.94;;;10.26;98.28
61018;BME280;48171;51.550;5.434;2023-01-05T00:24:03;101649.34;;;9.97;98.16
61018;BME280;48171;51.550;5.434;2023-01-05T00:26:41;101651.06;;;9.92;98.16
61018;BME280;48171;51.550;5.434;2023-01-05T00:29:12;101654.56;;;9.88;98.25
61018;BME280;48171;51.550;5.434;2023-01-05T00:32:09;101657.13;;;9.83;98.43
61018;BME280;48171;51.550;5.434;2023-01-05T00:34:47;101662.41;;;9.83;98.55
61018;BME280;48171;51.550;5.434;2023-01-05T00:37:32;101657.97;;;9.79;98.77
61018;BME280;48171;51.550;5.434;2023-01-05T00:40:20;101644.75;;;9.77;98.54
61018;BME280;48171;51.550;5.434;2023-01-05T00:42:55;101673.03;;;9.88;98.91
61018;BME280;48171;51.550;5.434;2023-01-05T00:45:51;101661.47;;;9.76;99.18
61018;BME280;48171;51.550;5.434;2023-01-05T00:48:24;101684.41;;;9.82;98.85
61018;BME280;48171;51.550;5.434;2023-01-05T00:51:00;101663.09;;;9.62;99.29
61018;BME280;48171;51.550;5.434;2023-01-05T00:53:28;101693.13;;;9.75;99.26
61018;BME280;48171;51.550;5.434;2023-01-05T00:56:21;101660.41;;;9.56;99.43
61018;BME280;48171;51.550;5.434;2023-01-05T00:59:02;101698.41;;;9.75;99.54
61018;BME280;48171;51.550;5.434;2023-01-05T01:01:36;101661.19;;;9.49;99.54
61018;BME280;48171;51.550;5.434;2023-01-05T01:04:30;101684.19;;;9.60;99.53
61018;BME280;48171;51.550;5.434;2023-01-05T01:07:27;101708.03;;;9.71;99.68
61018;BME280;48171;51.550;5.434;2023-01-05T01:10:19;101690.28;;;9.53;99.64
61018;BME280;48171;51.550;5.434;2023-01-05T01:12:59;101710.59;;;9.62;100.00
61018;BME280;48171;51.550;5.434;2023-01-05T01:15:49;101670.69;;;9.33;99.89
61018;BME280;48171;51.550;5.434;2023-01-05T01:18:28;101664.50;;;9.31;100.00
61018;BME280;48171;51.550;5.434;2023-01-05T01:21:00;101684.78;;;9.36;100.00
61018;BME280;48171;51.550;5.434;2023-01-05T01:23:40;101686.56;;;9.36;100.00
61018;BME280;48171;51.550;5.434;2023-01-05T01:26:28;101708.59;;;9.41;100.00
61018;BME280;48171;51.550;5.434;2023-01-05T01:29:18;101675.81;;;9.19;100.00
61018;BME280;48171;51.550;5.434;2023-01-05T01:31:53;101730.59;;;9.43;100.00
61018;BME280;48171;51.550;5.434;2023-01-05T01:34:37;101719.06;;;9.33;100.00
61018;BME280;48171;51.550;5.434;2023-01-05T01:37:26;101702.25;;;9.24;100.00
61018;BME280;48171;51.550;5.434;2023-01-05T01:39:56;101690.63;;;9.11;100.00
61018;BME280;48171;51.550;5.434;2023-01-05T01:42:43;101701.19;;;9.11;100.00
61018;BME280;48171;51.550;5.434;2023-01-05T01:45:47;101692.38;;;9.07;100.00
61018;BME280;48171;51.550;5.434;2023-01-05T01:51:56;101713.63;;;9.19;100.00
61018;BME280;48171;51.550;5.434;2023-01-05T01:54:54;101702.91;;;9.07;100.00
61018;BME280;48171;51.550;5.434;2023-01-05T01:57:46;101695.91;;;9.09;100.00
61018;BME280;48171;51.550;5.434;2023-01-05T02:00:28;101717.09;;;9.18;100.00
61018;BME280;48171;51.550;5.434;2023-01-05T02:03:10;101748.94;;;9.34;100.00
61018;BME280;48171;51.550;5.434;2023-01-05T02:05:41;101741.84;;;9.28;100.00
61018;BME280;48171;51.550;5.434;2023-01-05T02:08:19;101759.59;;;9.41;100.00
61018;BME280;48171;51.550;5.434;2023-01-05T02:17:14;101738.44;;;9.38;100.00
61018;BME280;48171;51.550;5.434;2023-01-05T02:34:25;101732.34;;;9.43;100.00
61018;BME280;48171;51.550;5.434;2023-01-05T02:40:22;101747.38;;;9.51;100.00
61018;BME280;48171;51.550;5.434;2023-01-05T02:43:11;101713.88;;;9.43;100.00
61018;BME280;48171;51.550;5.434;2023-01-05T02:45:48;101717.41;;;9.41;100.00
61018;BME280;48171;51.550;5.434;2023-01-05T02:48:27;101716.56;;;9.47;100.00
61018;BME280;48171;51.550;5.434;2023-01-05T02:51:45;101749.31;;;9.65;100.00
61018;BME280;48171;51.550;5.434;2023-01-05T02:57:21;101731.59;;;9.53;100.00
61018;BME280;48171;51.550;5.434;2023-01-05T03:00:13;101754.66;;;9.68;100.00
61018;BME280;48171;51.550;5.434;2023-01-05T03:02:48;101761.72;;;9.73;100.00
61018;BME280;48171;51.550;5.434;2023-01-05T03:05:56;101762.69;;;9.81;100.00
61018;BME280;48171;51.550;5.434;2023-01-05T03:15:18;101770.69;;;9.89;100.00
61018;BME280;48171;51.550;5.434;2023-01-05T03:18:22;101737.84;;;9.63;100.00
61018;BME280;48171;51.550;5.434;2023-01-05T03:20:59;101768.00;;;9.83;100.00
61018;BME280;48171;51.550;5.434;2023-01-05T03:23:36;101749.31;;;9.65;100.00
61018;BME280;48171;51.550;5.434;2023-01-05T03:26:24;101730.88;;;9.66;100.00
61018;BME280;48171;51.550;5.434;2023-01-05T03:29:14;101789.25;;;9.94;100.00
61018;BME280;48171;51.550;5.434;2023-01-05T03:32:28;101762.69;;;9.81;100.00
61018;BME280;48171;51.550;5.434;2023-01-05T03:38:47;101745.06;;;9.76;100.00
61018;BME280;48171;51.550;5.434;2023-01-05T03:41:21;101760.94;;;9.80;99.84
61018;BME280;48171;51.550;5.434;2023-01-05T03:47:05;101775.16;;;9.92;100.00
61018;BME280;48171;51.550;5.434;2023-01-05T03:52:29;101767.19;;;9.90;99.90
61018;BME280;48171;51.550;5.434;2023-01-05T03:55:11;101762.72;;;9.85;99.51
61018;BME280;48171;51.550;5.434;2023-01-05T03:58:01;101748.59;;;9.78;99.64
61018;BME280;48171;51.550;5.434;2023-01-05T04:00:41;101790.19;;;10.04;99.77
61018;BME280;48171;51.550;5.434;2023-01-05T04:03:45;101753.00;;;9.80;99.48
61018;BME280;48171;51.550;5.434;2023-01-05T04:06:18;101775.19;;;9.96;99.77
61018;BME280;48171;51.550;5.434;2023-01-05T04:08:49;101744.19;;;9.78;99.39
61018;BME280;48171;51.550;5.434;2023-01-05T04:11:36;101749.50;;;9.81;99.53
61018;BME280;48171;51.550;5.434;2023-01-05T04:14:06;101741.59;;;9.83;99.68
61018;BME280;48171;51.550;5.434;2023-01-05T04:16:54;101786.72;;;10.08;99.37
61018;BME280;48171;51.550;5.434;2023-01-05T04:19:55;101759.31;;;9.95;99.56
61018;BME280;48171;51.550;5.434;2023-01-05T04:22:31;101745.13;;;9.82;99.70
61018;BME280;48171;51.550;5.434;2023-01-05T04:25:13;101803.47;;;10.10;99.77
61018;BME280;48171;51.550;5.434;2023-01-05T04:31:00;101765.47;;;9.94;99.44
61018;BME280;48171;51.550;5.434;2023-01-05T04:33:46;101767.25;;;9.96;99.22
61018;BME280;48171;51.550;5.434;2023-01-05T04:36:25;101738.13;;;9.86;99.31
61018;BME280;48171;51.550;5.434;2023-01-05T04:39:19;101779.63;;;10.04;99.40
61018;BME280;48171;51.550;5.434;2023-01-05T04:44:53;101773.47;;;10.01;99.50
61018;BME280;48171;51.550;5.434;2023-01-05T04:47:38;101770.81;;;10.01;99.63
61018;BME280;48171;51.550;5.434;2023-01-05T04:50:24;101795.59;;;10.16;99.75
61018;BME280;48171;51.550;5.434;2023-01-05T04:56:05;101781.44;;;10.08;99.53
61018;BME280;48171;51.550;5.434;2023-01-05T04:58:47;101806.19;;;10.14;99.92
61018;BME280;48171;51.550;5.434;2023-01-05T05:01:36;101742.53;;;9.88;99.97
61018;BME280;48171;51.550;5.434;2023-01-05T05:04:39;101798.25;;;10.14;99.92
61018;BME280;48171;51.550;5.434;2023-01-05T05:07:14;101755.75;;;9.88;99.52
61018;BME280;48171;51.550;5.434;2023-01-05T05:10:10;101800.00;;;10.12;99.33
61018;BME280;48171;51.550;5.434;2023-01-05T05:12:53;101809.69;;;10.15;99.66
61018;BME280;48171;51.550;5.434;2023-01-05T05:15:32;101820.25;;;10.15;99.48
61018;BME280;48171;51.550;5.434;2023-01-05T05:18:04;101805.16;;;10.03;99.23
61018;BME280;48171;51.550;5.434;2023-01-05T05:20:39;101808.69;;;10.02;99.18
61018;BME280;48171;51.550;5.434;2023-01-05T05:23:28;101826.38;;;10.11;99.16
61018;BME280;48171;51.550;5.434;2023-01-05T05:26:26;101815.81;;;10.11;99.23
61018;BME280;48171;51.550;5.434;2023-01-05T05:29:07;101816.66;;;10.07;98.81
61018;BME280;48171;51.550;5.434;2023-01-05T05:32:02;101799.03;;;10.06;98.46
61018;BME280;48171;51.550;5.434;2023-01-05T05:34:36;101790.16;;;9.96;98.70
61018;BME280;48171;51.550;5.434;2023-01-05T05:37:36;101794.53;;;9.97;98.89
61018;BME280;48171;51.550;5.434;2023-01-05T05:40:17;101836.13;;;10.16;99.09
61018;BME280;48171;51.550;5.434;2023-01-05T05:43:00;101840.50;;;10.16;99.35
61018;BME280;48171;51.550;5.434;2023-01-05T05:45:47;101808.59;;;9.94;99.36
61018;BME280;48171;51.550;5.434;2023-01-05T05:51:17;101799.72;;;9.89;99.40
61018;BME280;48171;51.550;5.434;2023-01-05T05:54:11;101809.47;;;9.95;99.35
61018;BME280;48171;51.550;5.434;2023-01-05T05:57:19;101858.19;;;10.20;99.29
61018;BME280;48171;51.550;5.434;2023-01-05T06:00:11;101848.38;;;10.11;99.39
61018;BME280;48171;51.550;5.434;2023-01-05T06:02:56;101839.50;;;10.03;99.56
61018;BME280;48171;51.550;5.434;2023-01-05T06:05:30;101876.66;;;10.18;99.68
61018;BME280;48171;51.550;5.434;2023-01-05T06:08:16;101862.47;;;10.10;99.81
61018;BME280;48171;51.550;5.434;2023-01-05T06:11:03;101856.25;;;10.07;100.00
61018;BME280;48171;51.550;5.434;2023-01-05T06:16:40;101851.84;;;10.04;99.77
61018;BME280;48171;51.550;5.434;2023-01-05T06:19:14;101881.84;;;10.14;100.00
61018;BME280;48171;51.550;5.434;2023-01-05T06:21:45;101841.06;;;9.87;100.00
61018;BME280;48171;51.550;5.434;2023-01-05T06:27:06;101888.09;;;10.19;99.91
61018;BME280;48171;51.550;5.434;2023-01-05T06:29:52;101886.19;;;10.07;100.00
61018;BME280;48171;51.550;5.434;2023-01-05T06:32:31;101884.34;;;10.00;100.00
61018;BME280;48171;51.550;5.434;2023-01-05T06:35:07;101865.75;;;9.91;100.00
61018;BME280;48171;51.550;5.434;2023-01-05T06:37:57;101887.91;;;10.04;100.00
61018;BME280;48171;51.550;5.434;2023-01-05T06:40:34;101867.53;;;9.92;100.00
61018;BME280;48171;51.550;5.434;2023-01-05T06:43:32;101913.56;;;10.15;100.00
61018;BME280;48171;51.550;5.434;2023-01-05T06:46:02;101901.09;;;10.02;100.00
61018;BME280;48171;51.550;5.434;2023-01-05T06:48:36;101910.66;;;9.92;100.00
61018;BME280;48171;51.550;5.434;2023-01-05T06:51:25;101905.41;;;9.97;100.00
61018;BME280;48171;51.550;5.434;2023-01-05T06:54:09;101923.13;;;10.06;100.00
61018;BME280;48171;51.550;5.434;2023-01-05T06:57:01;101941.69;;;10.12;100.00
61018;BME280;48171;51.550;5.434;2023-01-05T07:03:01;101939.91;;;10.09;100.00
61018;BME280;48171;51.550;5.434;2023-01-05T07:06:01;101942.56;;;10.11;100.00
61018;BME280;48171;51.550;5.434;2023-01-05T07:08:36;101910.69;;;9.95;100.00
61018;BME280;48171;51.550;5.434;2023-01-05T07:11:29;101929.16;;;9.95;100.00
61018;BME280;48171;51.550;5.434;2023-01-05T07:14:43;101938.13;;;10.08;100.00
61018;BME280;48171;51.550;5.434;2023-01-05T07:17:13;101907.91;;;9.85;100.00
61018;BME280;48171;51.550;5.434;2023-01-05T07:19:51;101899.03;;;9.79;100.00
61018;BME280;48171;51.550;5.434;2023-01-05T07:22:23;101919.44;;;9.93;100.00
61018;BME280;48171;51.550;5.434;2023-01-05T07:24:52;101901.66;;;9.79;100.00
61018;BME280;48171;51.550;5.434;2023-01-05T07:27:25;101935.38;;;9.99;100.00
61018;BME280;48171;51.550;5.434;2023-01-05T07:30:02;101934.47;;;9.97;100.00
61018;BME280;48171;51.550;5.434;2023-01-05T07:32:33;101928.19;;;9.86;100.00
61018;BME280;48171;51.550;5.434;2023-01-05T07:35:01;101951.22;;;9.99;100.00
61018;BME280;48171;51.550;5.434;2023-01-05T07:37:37;101934.34;;;9.89;100.00
61018;BME280;48171;51.550;5.434;2023-01-05T07:40:12;101928.16;;;9.87;100.00
61018;BME280;48171;51.550;5.434;2023-01-05T07:42:42;101928.09;;;9.81;100.00
61018;BME280;48171;51.550;5.434;2023-01-05T07:45:12;101955.56;;;9.94;100.00
61018;BME280;48171;51.550;5.434;2023-01-05T07:47:48;101952.00;;;9.92;100.00
61018;BME280;48171;51.550;5.434;2023-01-05T07:50:22;101938.72;;;9.86;100.00
61018;BME280;48171;51.550;5.434;2023-01-05T07:53:02;101957.25;;;9.90;100.00
61018;BME280;48171;51.550;5.434;2023-01-05T07:55:37;101972.34;;;10.00;100.00
61018;BME280;48171;51.550;5.434;2023-01-05T07:58:07;101965.28;;;9.98;100.00
61018;BME280;48171;51.550;5.434;2023-01-05T08:00:45;101925.38;;;9.75;100.00
61018;BME280;48171;51.550;5.434;2023-01-05T08:03:20;101968.75;;;9.94;100.00
61018;BME280;48171;51.550;5.434;2023-01-05T08:05:55;101964.34;;;9.93;100.00
61018;BME280;48171;51.550;5.434;2023-01-05T08:08:39;101971.31;;;9.89;100.00
61018;BME280;48171;51.550;5.434;2023-01-05T08:14:39;101946.56;;;9.81;100.00
61018;BME280;48171;51.550;5.434;2023-01-05T08:17:12;101965.13;;;9.87;100.00
61018;BME280;48171;51.550;5.434;2023-01-05T08:19:41;101973.13;;;9.92;100.00
61018;BME280;48171;51.550;5.434;2023-01-05T08:22:07;101963.28;;;9.81;100.00
61018;BME280;48171;51.550;5.434;2023-01-05T08:24:45;101981.03;;;9.90;100.00
61018;BME280;48171;51.550;5.434;2023-01-05T08:27:21;101979.31;;;9.94;100.00
61018;BME280;48171;51.550;5.434;2023-01-05T08:30:06;101956.22;;;9.79;100.00
61018;BME280;48171;51.550;5.434;2023-01-05T08:32:42;101962.44;;;9.82;100.00
61018;BME280;48171;51.550;5.434;2023-01-05T08:35:27;102010.34;;;10.12;100.00
61018;BME280;48171;51.550;5.434;2023-01-05T08:37:54;101981.06;;;9.92;100.00
61018;BME280;48171;51.550;5.434;2023-01-05T08:40:28;101978.31;;;9.87;100.00
61018;BME280;48171;51.550;5.434;2023-01-05T08:43:10;101995.16;;;9.95;100.00
61018;BME280;48171;51.550;5.434;2023-01-05T08:45:35;102040.41;;;10.21;100.00
61018;BME280;48171;51.550;5.434;2023-01-05T08:48:03;101991.63;;;9.95;100.00
61018;BME280;48171;51.550;5.434;2023-01-05T08:50:34;102022.63;;;10.10;100.00
61018;BME280;48171;51.550;5.434;2023-01-05T08:53:08;102005.81;;;10.01;99.85
61018;BME280;48171;51.550;5.434;2023-01-05T08:55:38;102037.69;;;10.15;99.90
61018;BME280;48171;51.550;5.434;2023-01-05T08:58:26;102037.78;;;10.21;100.00
61018;BME280;48171;51.550;5.434;2023-01-05T09:00:58;102027.91;;;10.10;99.60
61018;BME280;48171;51.550;5.434;2023-01-05T09:03:30;102040.31;;;10.15;100.00
61018;BME280;48171;51.550;5.434;2023-01-05T09:06:23;102041.22;;;10.14;99.61
61018;BME280;48171;51.550;5.434;2023-01-05T09:08:52;102018.06;;;9.96;99.27
61018;BME280;48171;51.550;5.434;2023-01-05T09:11:23;102039.41;;;10.13;99.87
61018;BME280;48171;51.550;5.434;2023-01-05T09:13:57;102027.84;;;10.04;100.00
61018;BME280;48171;51.550;5.434;2023-01-05T09:16:33;102057.09;;;10.17;99.91
61018;BME280;48171;51.550;5.434;2023-01-05T09:19:05;102065.13;;;10.25;100.00
61018;BME280;48171;51.550;5.434;2023-01-05T09:21:37;102029.56;;;10.01;100.00
61018;BME280;48171;51.550;5.434;2023-01-05T09:24:14;102026.06;;;10.02;100.00
61018;BME280;48171;51.550;5.434;2023-01-05T09:26:51;102035.81;;;10.07;99.84
61018;BME280;48171;51.550;5.434;2023-01-05T09:29:20;102034.03;;;10.06;100.00
61018;BME280;48171;51.550;5.434;2023-01-05T09:31:56;102059.81;;;10.22;99.94
61018;BME280;48171;51.550;5.434;2023-01-05T09:34:27;102049.97;;;10.13;99.82
61018;BME280;48171;51.550;5.434;2023-01-05T09:37:04;102064.16;;;10.18;99.85
61018;BME280;48171;51.550;5.434;2023-01-05T09:39:38;102045.59;;;10.14;99.95
61018;BME280;48171;51.550;5.434;2023-01-05T09:42:13;102049.94;;;10.09;99.63
61018;BME280;48171;51.550;5.434;2023-01-05T09:45:01;102065.09;;;10.24;100.00
61018;BME280;48171;51.550;5.434;2023-01-05T09:47:54;102085.63;;;10.41;100.00
61018;BME280;48171;51.550;5.434;2023-01-05T09:50:45;102062.44;;;10.20;99.94
61018;BME280;48171;51.550;5.434;2023-01-05T09:53:27;102067.78;;;10.27;99.84
61018;BME280;48171;51.550;5.434;2023-01-05T09:56:04;102090.06;;;10.43;99.11
61018;BME280;48171;51.550;5.434;2023-01-05T10:05:25;102069.69;;;10.35;99.36
61018;BME280;48171;51.550;5.434;2023-01-05T10:08:14;102081.19;;;10.39;99.14
61018;BME280;48171;51.550;5.434;2023-01-05T10:11:01;102104.31;;;10.55;99.11
61018;BME280;48171;51.550;5.434;2023-01-05T10:14:11;102108.75;;;10.58;98.23
61018;BME280;48171;51.550;5.434;2023-01-05T10:16:39;102068.88;;;10.39;98.94
61018;BME280;48171;51.550;5.434;2023-01-05T10:30:59;102128.16;;;10.60;98.79
61018;BME280;48171;51.550;5.434;2023-01-05T10:33:48;102122.94;;;10.63;98.99
61018;BME280;48171;51.550;5.434;2023-01-05T10:42:43;102129.06;;;10.60;99.06
61018;BME280;48171;51.550;5.434;2023-01-05T10:45:13;102091.78;;;10.39;99.32
61018;BME280;48171;51.550;5.434;2023-01-05T10:47:41;102083.00;;;10.41;99.49
61018;BME280;48171;51.550;5.434;2023-01-05T10:50:25;102086.50;;;10.42;99.34
61018;BME280;48171;51.550;5.434;2023-01-05T10:53:07;102094.53;;;10.48;98.79
61018;BME280;48171;51.550;5.434;2023-01-05T10:55:49;102114.94;;;10.60;98.94
61018;BME280;48171;51.550;5.434;2023-01-05T10:58:34;102086.63;;;10.50;98.86
61018;BME280;48171;51.550;5.434;2023-01-05T11:04:28;102127.44;;;10.72;98.60
61018;BME280;48171;51.550;5.434;2023-01-05T11:07:09;102106.06;;;10.53;98.89
61018;BME280;48171;51.550;5.434;2023-01-05T11:09:45;102106.81;;;10.46;98.66
61018;BME280;48171;51.550;5.434;2023-01-05T11:12:23;102132.63;;;10.64;98.81
61018;BME280;48171;51.550;5.434;2023-01-05T11:14:59;102092.88;;;10.55;99.13
61018;BME280;48171;51.550;5.434;2023-01-05T11:17:32;102101.72;;;10.60;98.21
61018;BME280;48171;51.550;5.434;2023-01-05T11:20:13;102131.94;;;10.80;98.45
61018;BME280;48171;51.550;5.434;2023-01-05T11:22:45;102099.25;;;10.72;97.12
61018;BME280;48171;51.550;5.434;2023-01-05T11:25:33;102128.63;;;10.95;97.71
61018;BME280;48171;51.550;5.434;2023-01-05T11:28:16;102093.13;;;10.75;97.20
61018;BME280;48171;51.550;5.434;2023-01-05T11:33:39;102091.22;;;10.66;96.39
61018;BME280;48171;51.550;5.434;2023-01-05T11:36:14;102110.66;;;10.68;96.16
61018;BME280;48171;51.550;5.434;2023-01-05T11:38:52;102101.75;;;10.61;97.19
61018;BME280;48171;51.550;5.434;2023-01-05T11:41:32;102077.75;;;10.45;97.43
61018;BME280;48171;51.550;5.434;2023-01-05T11:44:10;102101.69;;;10.55;97.80
61018;BME280;48171;51.550;5.434;2023-01-05T11:47:49;102098.09;;;10.52;97.79
61018;BME280;48171;51.550;5.434;2023-01-05T11:50:16;102121.16;;;10.64;97.61
61018;BME280;48171;51.550;5.434;2023-01-05T11:53:04;102119.34;;;10.59;97.56
61018;BME280;48171;51.550;5.434;2023-01-05T11:59:28;102081.41;;;10.54;97.86
61018;BME280;48171;51.550;5.434;2023-01-05T12:32:54;102106.94;;;11.29;95.23
61018;BME280;48171;51.550;5.434;2023-01-05T13:04:09;102084.53;;;10.93;94.44
61018;BME280;48171;51.550;5.434;2023-01-05T13:07:16;102049.09;;;10.77;95.32
61018;BME280;48171;51.550;5.434;2023-01-05T13:23:20;102086.50;;;11.14;95.18
61018;BME280;48171;51.550;5.434;2023-01-05T13:29:40;102082.19;;;11.22;95.41
61018;BME280;48171;51.550;5.434;2023-01-05T13:55:15;102089.19;;;11.15;95.81
61018;BME280;48171;51.550;5.434;2023-01-05T14:04:35;102043.91;;;10.85;95.69
61018;BME280;48171;51.550;5.434;2023-01-05T14:07:29;102036.81;;;10.84;95.99
61018;BME280;48171;51.550;5.434;2023-01-05T14:10:50;102060.78;;;11.00;96.87
61018;BME280;48171;51.550;5.434;2023-01-05T14:33:01;102064.25;;;10.93;97.17
61018;BME280;48171;51.550;5.434;2023-01-05T14:36:13;102058.94;;;10.89;97.48
61018;BME280;48171;51.550;5.434;2023-01-05T14:46:11;102086.34;;;10.98;96.52
61018;BME280;48171;51.550;5.434;2023-01-05T14:49:06;102050.75;;;10.69;96.23
61018;BME280;48171;51.550;5.434;2023-01-05T14:52:11;102065.81;;;10.76;96.26
61018;BME280;48171;51.550;5.434;2023-01-05T14:58:08;102070.19;;;10.74;97.10
61018;BME280;48171;51.550;5.434;2023-01-05T15:04:50;102100.25;;;10.82;98.06
61018;BME280;48171;51.550;5.434;2023-01-05T15:28:15;102077.84;;;10.51;100.00
61018;BME280;48171;51.550;5.434;2023-01-05T15:43:18;102034.94;;;10.08;100.00
61018;BME280;48171;51.550;5.434;2023-01-05T15:46:25;102043.84;;;10.14;100.00
61018;BME280;48171;51.550;5.434;2023-01-05T15:49:09;102048.34;;;10.20;100.00
61018;BME280;48171;51.550;5.434;2023-01-05T15:57:36;102047.31;;;10.12;100.00
61018;BME280;48171;51.550;5.434;2023-01-05T16:00:39;102021.66;;;10.00;100.00
61018;BME280;48171;51.550;5.434;2023-01-05T16:03:46;102026.00;;;9.99;100.00
61018;BME280;48171;51.550;5.434;2023-01-05T16:06:46;102053.56;;;10.17;100.00
61018;BME280;48171;51.550;5.434;2023-01-05T16:26:03;102036.66;;;10.06;100.00
61018;BME280;48171;51.550;5.434;2023-01-05T16:28:34;102003.81;;;9.85;100.00
61018;BME280;48171;51.550;5.434;2023-01-05T16:31:11;102021.56;;;9.95;100.00
61018;BME280;48171;51.550;5.434;2023-01-05T16:33:37;101979.00;;;9.72;100.00
61018;BME280;48171;51.550;5.434;2023-01-05T16:36:19;102022.41;;;9.93;100.00
61018;BME280;48171;51.550;5.434;2023-01-05T16:39:13;102021.53;;;9.92;100.00
61018;BME280;48171;51.550;5.434;2023-01-05T16:41:39;101989.63;;;9.77;100.00
61018;BME280;48171;51.550;5.434;2023-01-05T16:44:30;102015.38;;;9.92;100.00
61018;BME280;48171;51.550;5.434;2023-01-05T16:47:08;102009.97;;;9.84;100.00
61018;BME280;48171;51.550;5.434;2023-01-05T16:49:36;102002.09;;;9.87;100.00
61018;BME280;48171;51.550;5.434;2023-01-05T16:52:05;101976.28;;;9.66;100.00
61018;BME280;48171;51.550;5.434;2023-01-05T16:54:37;101998.41;;;9.76;100.00
61018;BME280;48171;51.550;5.434;2023-01-05T16:57:31;102015.38;;;9.92;100.00
61018;BME280;48171;51.550;5.434;2023-01-05T16:59:58;102019.81;;;9.94;100.00
61018;BME280;48171;51.550;5.434;2023-01-05T17:05:00;102005.72;;;9.95;100.00
61018;BME280;48171;51.550;5.434;2023-01-05T17:07:26;101962.28;;;9.73;100.00
61018;BME280;48171;51.550;5.434;2023-01-05T17:09:58;101980.03;;;9.82;100.00
61018;BME280;48171;51.550;5.434;2023-01-05T17:12:36;101981.72;;;9.78;100.00
61018;BME280;48171;51.550;5.434;2023-01-05T17:15:07;101998.53;;;9.85;100.00
61018;BME280;48171;51.550;5.434;2023-01-05T17:17:43;101966.69;;;9.73;100.00
61018;BME280;48171;51.550;5.434;2023-01-05T17:20:15;101981.03;;;9.90;100.00
61018;BME280;48171;51.550;5.434;2023-01-05T17:22:44;102007.41;;;9.90;100.00
61018;BME280;48171;51.550;5.434;2023-01-05T17:25:15;101992.19;;;9.72;100.00
61018;BME280;48171;51.550;5.434;2023-01-05T17:27:47;101999.41;;;9.84;100.00
61018;BME280;48171;51.550;5.434;2023-01-05T17:30:24;101976.41;;;9.77;100.00
61018;BME280;48171;51.550;5.434;2023-01-05T17:32:54;101980.97;;;9.87;100.00
61018;BME280;48171;51.550;5.434;2023-01-05T17:35:23;101966.78;;;9.79;100.00
61018;BME280;48171;51.550;5.434;2023-01-05T17:37:52;101968.59;;;9.83;100.00
61018;BME280;48171;51.550;5.434;2023-01-05T17:40:39;101990.81;;;9.99;100.00
61018;BME280;48171;51.550;5.434;2023-01-05T17:43:08;101987.22;;;9.92;100.00
61018;BME280;48171;51.550;5.434;2023-01-05T17:45:44;101965.16;;;9.89;100.00
61018;BME280;48171;51.550;5.434;2023-01-05T17:48:11;101974.13;;;10.00;100.00
61018;BME280;48171;51.550;5.434;2023-01-05T17:50:59;101983.03;;;10.10;100.00
61018;BME280;48171;51.550;5.434;2023-01-05T17:53:27;101995.41;;;10.12;100.00
61018;BME280;48171;51.550;5.434;2023-01-05T17:55:55;101992.78;;;10.15;100.00
61018;BME280;48171;51.550;5.434;2023-01-05T17:58:33;101990.16;;;10.15;100.00
61018;BME280;48171;51.550;5.434;2023-01-05T18:01:03;101974.19;;;10.05;100.00
61018;BME280;48171;51.550;5.434;2023-01-05T18:03:35;101987.50;;;10.12;100.00
61018;BME280;48171;51.550;5.434;2023-01-05T18:06:15;101962.66;;;9.98;100.00
61018;BME280;48171;51.550;5.434;2023-01-05T18:08:41;101965.25;;;9.96;100.00
61018;BME280;48171;51.550;5.434;2023-01-05T18:11:08;101947.63;;;9.94;100.00
61018;BME280;48171;51.550;5.434;2023-01-05T18:13:34;101945.88;;;9.94;100.00
61018;BME280;48171;51.550;5.434;2023-01-05T18:16:04;101985.91;;;10.27;100.00
61018;BME280;48171;51.550;5.434;2023-01-05T18:18:34;101975.16;;;10.13;100.00
61018;BME280;48171;51.550;5.434;2023-01-05T18:21:03;101942.38;;;9.97;100.00
61018;BME280;48171;51.550;5.434;2023-01-05T18:23:33;101969.06;;;10.17;100.00
61018;BME280;48171;51.550;5.434;2023-01-05T18:26:15;101960.28;;;10.19;100.00
61018;BME280;48171;51.550;5.434;2023-01-05T18:28:46;101981.59;;;10.32;100.00
61018;BME280;48171;51.550;5.434;2023-01-05T18:31:23;101955.00;;;10.19;100.00
61018;BME280;48171;51.550;5.434;2023-01-05T18:33:53;101949.72;;;10.19;100.00
61018;BME280;48171;51.550;5.434;2023-01-05T18:36:27;101965.66;;;10.27;100.00
61018;BME280;48171;51.550;5.434;2023-01-05T18:38:56;101953.28;;;10.23;100.00
61018;BME280;48171;51.550;5.434;2023-01-05T18:41:30;101963.09;;;10.32;100.00
61018;BME280;48171;51.550;5.434;2023-01-05T18:43:59;101948.94;;;10.27;100.00
61018;BME280;48171;51.550;5.434;2023-01-05T18:46:30;101918.81;;;10.11;100.00
61018;BME280;48171;51.550;5.434;2023-01-05T18:48:55;101962.31;;;10.39;100.00
61018;BME280;48171;51.550;5.434;2023-01-05T18:51:27;101933.84;;;10.16;100.00
61018;BME280;48171;51.550;5.434;2023-01-05T18:53:55;101931.25;;;10.21;100.00
61018;BME280;48171;51.550;5.434;2023-01-05T18:56:33;101931.31;;;10.24;100.00
61018;BME280;48171;51.550;5.434;2023-01-05T18:58:59;101932.06;;;10.17;100.00
61018;BME280;48171;51.550;5.434;2023-01-05T19:01:28;101931.22;;;10.19;100.00
61018;BME280;48171;51.550;5.434;2023-01-05T19:03:59;101925.13;;;10.22;100.00
61018;BME280;48171;51.550;5.434;2023-01-05T19:06:27;101929.53;;;10.25;100.00